首页
METAR-TAF:

METAR-TAF

机场 :

Cambridge Municipal Airport

剑桥, 明尼蘇達州, 美国

纬度: 45-34N, 经度: 093-16W, 海拔: 287米

当前天气观测

该预报发布于8分钟前的21:35 UTC
风速4节,风向北转东北
温度 26°C
湿度 58%
气压 1018 hPa
散云层高于6000英尺

METAR: KCBG 142135Z AUTO 03004KT SCT060 26/17 A3005 RMK AO2 PWINO

时间: 16:43 (21:43 UTC)


TAF: 丢失

超过4000个机场的气象观测和天气预报(METAR&TAF报告)。

可查询的气象台以黄色和红色小点在地图上表示。

将鼠标移到小点上方,可查看气象台名称。

然后点击查看天气观测和预报。

如需切换地图:点击带黑十字的绿色按钮放大地图;点击带横线的绿色按钮缩小地图;或者点击绿色箭头查看邻近地区的地图。


METAR-TAF: